createdAt,value
2022-10-14T00:00:00.151Z,999.73
2022-10-14T00:05:00.121Z,999.7
2022-10-14T00:10:00.102Z,999.83
2022-10-14T00:15:00.093Z,999.8
2022-10-14T00:20:00.146Z,999.89
2022-10-14T00:25:00.224Z,999.8
2022-10-14T00:30:00.175Z,999.83
2022-10-14T00:35:00.153Z,999.79
2022-10-14T00:40:00.180Z,999.79
2022-10-14T00:45:00.104Z,999.78
2022-10-14T00:50:00.119Z,999.76
2022-10-14T00:55:00.127Z,999.74
2022-10-14T01:00:00.144Z,999.73
2022-10-14T01:05:00.091Z,999.64
2022-10-14T01:10:00.175Z,999.69
2022-10-14T01:15:00.127Z,999.68
2022-10-14T01:20:00.137Z,999.67
2022-10-14T01:25:00.114Z,999.64
2022-10-14T01:30:00.114Z,999.61
2022-10-14T01:35:00.129Z,999.69
2022-10-14T01:40:00.167Z,999.62
2022-10-14T01:45:00.134Z,999.67
2022-10-14T01:50:00.111Z,999.63
2022-10-14T01:55:00.180Z,999.66
2022-10-14T02:00:00.185Z,999.65
2022-10-14T02:05:00.101Z,999.58
2022-10-14T02:10:00.109Z,999.53
2022-10-14T02:15:00.098Z,999.5
2022-10-14T02:20:00.110Z,999.34
2022-10-14T02:25:00.105Z,999.35
2022-10-14T02:30:00.112Z,999.37
2022-10-14T02:35:00.102Z,999.37
2022-10-14T02:40:00.143Z,999.35
2022-10-14T02:45:00.123Z,999.29
2022-10-14T02:50:00.133Z,999.27
2022-10-14T02:55:00.109Z,999.2
2022-10-14T03:00:00.193Z,999.2
2022-10-14T03:05:00.136Z,999.24
2022-10-14T03:10:00.160Z,999.09
2022-10-14T03:15:00.108Z,999.04
2022-10-14T03:20:00.159Z,999.15
2022-10-14T03:25:00.114Z,998.73
2022-10-14T03:30:00.121Z,998.66
2022-10-14T03:35:00.101Z,998.62
2022-10-14T03:40:00.142Z,998.63
2022-10-14T03:45:00.098Z,998.56
2022-10-14T03:50:00.137Z,998.59
2022-10-14T03:55:00.120Z,998.5
2022-10-14T04:00:00.217Z,998.55
2022-10-14T04:05:01.150Z,998.55
2022-10-14T04:10:00.123Z,998.44
2022-10-14T04:15:00.111Z,998.47
2022-10-14T04:20:00.131Z,998.39
2022-10-14T04:25:00.133Z,998.43
2022-10-14T04:30:00.148Z,998.44
2022-10-14T04:35:00.133Z,998.47
2022-10-14T04:40:00.163Z,998.45
2022-10-14T04:45:00.116Z,998.39
2022-10-14T04:50:00.150Z,998.34
2022-10-14T04:55:00.138Z,998.4
2022-10-14T05:00:00.149Z,998.3
2022-10-14T05:05:00.103Z,998.28
2022-10-14T05:10:00.124Z,998.25
2022-10-14T05:15:00.110Z,998.19
2022-10-14T05:20:00.142Z,998.1
2022-10-14T05:25:00.112Z,998.06
2022-10-14T05:30:00.130Z,998.03
2022-10-14T05:35:00.094Z,998.1
2022-10-14T05:40:00.171Z,998.04
2022-10-14T05:45:00.086Z,998.07
2022-10-14T05:50:00.109Z,998.09
2022-10-14T05:55:00.122Z,998.03
2022-10-14T06:00:00.141Z,998.06
2022-10-14T06:05:00.104Z,998.11
2022-10-14T06:10:00.168Z,998.23
2022-10-14T06:15:00.092Z,998.27
2022-10-14T06:20:00.112Z,998.33
2022-10-14T06:25:03.922Z,998.26
2022-10-14T06:30:00.136Z,998.34
2022-10-14T06:35:00.109Z,998.28
2022-10-14T06:40:00.132Z,998.36
2022-10-14T06:45:00.153Z,998.27
2022-10-14T06:50:00.115Z,998.25
2022-10-14T06:55:00.112Z,998.29
2022-10-14T07:00:00.208Z,998.39
2022-10-14T07:05:00.134Z,998.37
2022-10-14T07:10:00.139Z,998.32
2022-10-14T07:15:00.102Z,998.43
2022-10-14T07:20:00.128Z,998.47
2022-10-14T07:25:00.111Z,998.46
2022-10-14T07:30:00.169Z,998.53
2022-10-14T07:35:00.105Z,998.52
2022-10-14T07:40:00.124Z,998.49
2022-10-14T07:45:00.128Z,998.5
2022-10-14T07:50:00.124Z,998.52
2022-10-14T07:55:00.122Z,998.48
2022-10-14T08:00:00.191Z,998.46
2022-10-14T08:05:13.375Z,998.5
2022-10-14T08:10:00.159Z,998.41
2022-10-14T08:15:00.124Z,998.32
2022-10-14T08:20:00.136Z,998.44
2022-10-14T08:25:00.107Z,998.32
2022-10-14T08:30:00.153Z,998.36
2022-10-14T08:35:00.104Z,998.3
2022-10-14T08:40:00.117Z,998.34
2022-10-14T08:45:00.144Z,998.36
2022-10-14T08:50:00.101Z,998.33
2022-10-14T08:55:00.100Z,998.37
2022-10-14T09:00:00.336Z,998.43
2022-10-14T09:05:00.125Z,998.37
2022-10-14T09:10:00.105Z,998.4
2022-10-14T09:15:00.145Z,998.36
2022-10-14T09:20:00.137Z,998.39
2022-10-14T09:25:00.138Z,998.39
2022-10-14T09:30:00.157Z,998.31
2022-10-14T09:35:00.128Z,998.26
2022-10-14T09:40:00.161Z,998.22
2022-10-14T09:45:00.181Z,998.19
2022-10-14T09:50:00.117Z,998.06
2022-10-14T09:55:00.124Z,998.04
2022-10-14T10:00:00.133Z,998.05
2022-10-14T10:05:00.148Z,998.09
2022-10-14T10:10:00.097Z,997.88
2022-10-14T10:15:00.135Z,997.95
2022-10-14T10:20:00.148Z,997.88
2022-10-14T10:25:00.109Z,997.92
2022-10-14T10:30:00.130Z,997.81
2022-10-14T10:35:00.129Z,997.82
2022-10-14T10:40:00.133Z,997.71
2022-10-14T10:45:00.143Z,997.73
2022-10-14T10:50:00.321Z,998.18
2022-10-14T10:55:00.102Z,997.69
2022-10-14T11:00:00.166Z,997.76
2022-10-14T11:05:00.139Z,997.59
2022-10-14T11:10:00.165Z,997.6
2022-10-14T11:15:00.091Z,997.54
2022-10-14T11:20:00.173Z,997.35
2022-10-14T11:25:00.112Z,997.36
2022-10-14T11:30:00.168Z,997.34
2022-10-14T11:35:00.123Z,997.21
2022-10-14T11:40:00.142Z,997.23
2022-10-14T11:45:00.123Z,997.1
2022-10-14T11:50:00.200Z,997.01
2022-10-14T11:55:00.097Z,997.05
2022-10-14T12:00:00.280Z,997.06
2022-10-14T12:05:00.148Z,996.99
2022-10-14T12:10:00.269Z,996.86
2022-10-14T12:15:00.112Z,996.82
2022-10-14T12:20:00.178Z,996.72
2022-10-14T12:25:00.107Z,996.63
2022-10-14T12:30:00.173Z,996.6
2022-10-14T12:35:00.101Z,996.6
2022-10-14T12:40:00.163Z,996.51
2022-10-14T12:45:00.107Z,996.57
2022-10-14T12:50:00.099Z,996.52
2022-10-14T12:55:00.120Z,996.56
2022-10-14T13:00:00.165Z,996.46
2022-10-14T13:05:00.116Z,996.47
2022-10-14T13:10:00.135Z,996.3
2022-10-14T13:15:00.135Z,996.3
2022-10-14T13:20:00.115Z,996.28
2022-10-14T13:25:00.163Z,996.15
2022-10-14T13:30:00.094Z,996.1
2022-10-14T13:35:00.113Z,996.16
2022-10-14T13:40:00.150Z,996.1
2022-10-14T13:45:00.145Z,996.04
2022-10-14T13:50:00.128Z,996.08
2022-10-14T13:55:00.122Z,995.97
2022-10-14T14:05:00.138Z,996.01
2022-10-14T14:10:00.172Z,996.11
2022-10-14T14:15:00.166Z,996.12
2022-10-14T14:20:00.155Z,996.06
2022-10-14T14:25:03.777Z,996
2022-10-14T14:30:00.133Z,995.82
2022-10-14T14:35:00.147Z,995.74
2022-10-14T14:40:00.158Z,995.76
2022-10-14T14:45:00.131Z,995.71
2022-10-14T14:50:33.878Z,995.62
2022-10-14T14:55:00.099Z,995.55
2022-10-14T15:00:00.298Z,995.46
2022-10-14T15:05:00.134Z,995.39
2022-10-14T15:10:00.097Z,995.32
2022-10-14T15:15:00.115Z,995.29
2022-10-14T15:20:00.365Z,995.29
2022-10-14T15:25:00.134Z,995.34
2022-10-14T15:30:00.182Z,995.39
2022-10-14T15:35:00.109Z,995.27
2022-10-14T15:40:00.131Z,995.22
2022-10-14T15:45:00.102Z,995.16
2022-10-14T15:50:00.105Z,995.17
2022-10-14T15:55:00.095Z,995.16
2022-10-14T16:00:00.156Z,995.01
2022-10-14T16:05:19.145Z,994.94
2022-10-14T16:10:00.138Z,994.89
2022-10-14T16:15:00.185Z,994.83
2022-10-14T16:20:00.136Z,994.77
2022-10-14T16:25:00.150Z,994.84
2022-10-14T16:30:00.195Z,994.79
2022-10-14T16:35:00.128Z,994.74
2022-10-14T16:40:00.281Z,994.68
2022-10-14T16:45:00.114Z,994.69
2022-10-14T16:50:00.222Z,994.69
2022-10-14T16:55:00.132Z,994.81
2022-10-14T17:00:00.343Z,994.83
2022-10-14T17:05:00.142Z,994.89
2022-10-14T17:10:00.114Z,994.97
2022-10-14T17:15:00.129Z,994.97
2022-10-14T17:20:00.138Z,994.94
2022-10-14T17:25:00.096Z,994.89
2022-10-14T17:30:00.173Z,994.96
2022-10-14T17:35:00.094Z,994.88
2022-10-14T17:40:00.141Z,994.88
2022-10-14T17:45:00.124Z,994.9
2022-10-14T17:50:00.110Z,994.78
2022-10-14T17:55:01.303Z,994.73
2022-10-14T18:00:00.178Z,994.65
2022-10-14T18:05:00.125Z,994.55
2022-10-14T18:10:00.145Z,994.55
2022-10-14T18:15:00.129Z,994.52
2022-10-14T18:20:00.125Z,994.57
2022-10-14T18:25:00.098Z,994.43
2022-10-14T18:30:00.176Z,994.52
2022-10-14T18:35:00.128Z,994.41
2022-10-14T18:40:00.204Z,994.33
2022-10-14T18:45:00.115Z,994.38
2022-10-14T18:50:00.261Z,994.37
2022-10-14T18:55:00.114Z,994.41
2022-10-14T19:00:00.178Z,994.24
2022-10-14T19:05:00.130Z,994.11
2022-10-14T19:10:00.114Z,994.04
2022-10-14T19:15:00.132Z,994.04
2022-10-14T19:20:00.145Z,993.91
2022-10-14T19:25:00.146Z,993.8
2022-10-14T19:30:00.210Z,993.86
2022-10-14T19:35:00.140Z,993.83
2022-10-14T19:40:00.175Z,993.79
2022-10-14T19:45:00.113Z,993.72
2022-10-14T19:50:00.173Z,993.56
2022-10-14T19:55:00.118Z,993.55
2022-10-14T20:00:00.308Z,993.38
2022-10-14T20:05:00.111Z,993.41
2022-10-14T20:10:01.924Z,993.34
2022-10-14T20:15:00.141Z,993.31
2022-10-14T20:20:00.163Z,993.23
2022-10-14T20:25:00.108Z,993.47
2022-10-14T20:30:00.168Z,993.46
2022-10-14T20:35:00.165Z,993.5
2022-10-14T20:40:00.153Z,993.58
2022-10-14T20:45:00.123Z,993.52
2022-10-14T20:50:00.136Z,993.56
2022-10-14T20:55:00.116Z,993.43
2022-10-14T21:00:00.210Z,993.31
2022-10-14T21:05:00.174Z,993.28
2022-10-14T21:10:00.157Z,993.4
2022-10-14T21:15:00.126Z,993.33
2022-10-14T21:20:00.186Z,993.34
2022-10-14T21:25:00.108Z,993.25
2022-10-14T21:30:00.318Z,993.15
2022-10-14T21:35:00.130Z,993.06
2022-10-14T21:40:00.179Z,993.17
2022-10-14T21:45:00.134Z,993.11
2022-10-14T21:50:00.203Z,992.92
2022-10-14T21:55:00.168Z,992.95
2022-10-14T22:00:00.553Z,992.89
2022-10-14T22:05:00.149Z,992.79
2022-10-14T22:10:00.164Z,992.62
2022-10-14T22:20:00.129Z,992.69
2022-10-14T22:25:00.136Z,992.64
2022-10-14T22:30:00.156Z,992.6
2022-10-14T22:35:00.119Z,992.51
2022-10-14T22:40:00.162Z,992.41
2022-10-14T22:45:00.113Z,992.47
2022-10-14T22:50:00.129Z,992.41
2022-10-14T22:55:00.126Z,992.47
2022-10-14T23:00:00.150Z,992.37
2022-10-14T23:05:00.096Z,992.29
2022-10-14T23:10:00.103Z,992.28
2022-10-14T23:15:00.112Z,992.32
2022-10-14T23:20:00.106Z,992.36
2022-10-14T23:25:00.095Z,992.27
2022-10-14T23:30:00.116Z,992.2
2022-10-14T23:35:00.096Z,992.27
2022-10-14T23:40:00.228Z,992.19
2022-10-14T23:45:00.101Z,992.23
2022-10-14T23:50:00.113Z,992.17
2022-10-14T23:55:00.154Z,992.1
